sensor_id;sensor_type;location;lat;lon;timestamp;pressure;altitude;pressure_sealevel;temperature;humidity
46129;BME280;31860;45.186;5.790;2022-10-16T00:01:18;99178.34;;;19.56;72.33
46129;BME280;31860;45.186;5.790;2022-10-16T00:03:44;99172.16;;;19.55;72.86
46129;BME280;31860;45.186;5.790;2022-10-16T00:06:11;99182.84;;;19.54;73.16
46129;BME280;31860;45.186;5.790;2022-10-16T00:08:37;99189.16;;;19.50;72.94
46129;BME280;31860;45.186;5.790;2022-10-16T00:11:09;99187.50;;;19.47;73.45
46129;BME280;31860;45.186;5.790;2022-10-16T00:13:36;99184.03;;;19.45;73.48
46129;BME280;31860;45.186;5.790;2022-10-16T00:16:03;99186.78;;;19.42;73.55
46129;BME280;31860;45.186;5.790;2022-10-16T00:18:29;99176.25;;;19.41;73.82
46129;BME280;31860;45.186;5.790;2022-10-16T00:21:00;99170.19;;;19.37;73.71
46129;BME280;31860;45.186;5.790;2022-10-16T00:23:26;99176.44;;;19.36;73.56
46129;BME280;31860;45.186;5.790;2022-10-16T00:25:59;99178.16;;;19.37;73.50
46129;BME280;31860;45.186;5.790;2022-10-16T00:28:26;99177.19;;;19.40;73.13
46129;BME280;31860;45.186;5.790;2022-10-16T00:30:51;99174.56;;;19.38;73.24
46129;BME280;31860;45.186;5.790;2022-10-16T00:33:17;99178.91;;;19.41;73.10
46129;BME280;31860;45.186;5.790;2022-10-16T00:35:42;99179.78;;;19.41;72.93
46129;BME280;31860;45.186;5.790;2022-10-16T00:38:08;99185.94;;;19.42;72.63
46129;BME280;31860;45.186;5.790;2022-10-16T00:40:34;99187.66;;;19.43;72.89
46129;BME280;31860;45.186;5.790;2022-10-16T00:42:59;99182.38;;;19.43;72.68
46129;BME280;31860;45.186;5.790;2022-10-16T00:45:25;99185.81;;;19.45;72.66
46129;BME280;31860;45.186;5.790;2022-10-16T00:47:52;99192.06;;;19.44;72.74
46129;BME280;31860;45.186;5.790;2022-10-16T00:50:27;99193.84;;;19.43;72.63
46129;BME280;31860;45.186;5.790;2022-10-16T00:52:54;99194.72;;;19.44;72.89
46129;BME280;31860;45.186;5.790;2022-10-16T00:55:20;99201.88;;;19.40;72.71
46129;BME280;31860;45.186;5.790;2022-10-16T00:57:45;99190.38;;;19.41;72.70
46129;BME280;31860;45.186;5.790;2022-10-16T01:00:14;99204.53;;;19.40;72.79
46129;BME280;31860;45.186;5.790;2022-10-16T01:02:41;99207.16;;;19.40;72.58
46129;BME280;31860;45.186;5.790;2022-10-16T01:05:07;99197.38;;;19.42;72.49
46129;BME280;31860;45.186;5.790;2022-10-16T01:10:40;99208.09;;;19.39;72.07
46129;BME280;31860;45.186;5.790;2022-10-16T01:13:14;99209.78;;;19.42;71.81
46129;BME280;31860;45.186;5.790;2022-10-16T01:18:19;99213.06;;;19.48;69.96
46129;BME280;31860;45.186;5.790;2022-10-16T01:21:00;99204.25;;;19.48;69.63
46129;BME280;31860;45.186;5.790;2022-10-16T01:23:38;99203.56;;;19.43;69.87
46129;BME280;31860;45.186;5.790;2022-10-16T01:29:25;99213.53;;;19.36;69.34
46129;BME280;31860;45.186;5.790;2022-10-16T01:32:10;99208.22;;;19.36;69.12
46129;BME280;31860;45.186;5.790;2022-10-16T01:34:45;99214.53;;;19.32;69.02
46129;BME280;31860;45.186;5.790;2022-10-16T01:37:16;99219.84;;;19.32;68.93
46129;BME280;31860;45.186;5.790;2022-10-16T01:39:47;99212.81;;;19.30;68.86
46129;BME280;31860;45.186;5.790;2022-10-16T01:42:20;99209.25;;;19.31;68.87
46129;BME280;31860;45.186;5.790;2022-10-16T01:44:48;99220.72;;;19.31;68.68
46129;BME280;31860;45.186;5.790;2022-10-16T01:47:15;99216.31;;;19.32;69.22
46129;BME280;31860;45.186;5.790;2022-10-16T01:49:42;99220.78;;;19.30;69.37
46129;BME280;31860;45.186;5.790;2022-10-16T01:52:14;99223.63;;;19.24;69.48
46129;BME280;31860;45.186;5.790;2022-10-16T01:54:42;99218.53;;;19.18;69.81
46129;BME280;31860;45.186;5.790;2022-10-16T01:57:10;99227.34;;;19.18;70.45
46129;BME280;31860;45.186;5.790;2022-10-16T01:59:42;99224.75;;;19.17;70.53
46129;BME280;31860;45.186;5.790;2022-10-16T02:02:10;99217.69;;;19.17;70.58
46129;BME280;31860;45.186;5.790;2022-10-16T02:04:45;99220.34;;;19.17;70.35
46129;BME280;31860;45.186;5.790;2022-10-16T02:07:11;99222.25;;;19.12;70.37
46129;BME280;31860;45.186;5.790;2022-10-16T02:09:37;99221.41;;;19.12;70.40
46129;BME280;31860;45.186;5.790;2022-10-16T02:12:14;99215.19;;;19.13;69.77
46129;BME280;31860;45.186;5.790;2022-10-16T02:14:41;99218.66;;;19.15;69.17
46129;BME280;31860;45.186;5.790;2022-10-16T02:17:12;99216.00;;;19.15;68.98
46129;BME280;31860;45.186;5.790;2022-10-16T02:19:37;99223.81;;;19.18;68.58
46129;BME280;31860;45.186;5.790;2022-10-16T02:22:04;99219.34;;;19.20;68.64
46129;BME280;31860;45.186;5.790;2022-10-16T02:24:35;99219.53;;;19.15;68.81
46129;BME280;31860;45.186;5.790;2022-10-16T02:27:09;99227.59;;;19.11;68.89
46129;BME280;31860;45.186;5.790;2022-10-16T02:29:40;99233.84;;;19.10;69.21
46129;BME280;31860;45.186;5.790;2022-10-16T02:32:09;99226.97;;;19.04;69.57
46129;BME280;31860;45.186;5.790;2022-10-16T02:34:37;99221.63;;;19.06;69.44
46129;BME280;31860;45.186;5.790;2022-10-16T02:37:05;99225.97;;;19.07;69.24
46129;BME280;31860;45.186;5.790;2022-10-16T02:39:32;99225.16;;;19.05;69.58
46129;BME280;31860;45.186;5.790;2022-10-16T02:41:58;99230.63;;;19.00;69.87
46129;BME280;31860;45.186;5.790;2022-10-16T02:44:24;99237.66;;;19.01;69.72
46129;BME280;31860;45.186;5.790;2022-10-16T02:46:49;99229.75;;;19.00;69.75
46129;BME280;31860;45.186;5.790;2022-10-16T02:49:14;99235.97;;;18.99;69.76
46129;BME280;31860;45.186;5.790;2022-10-16T02:51:40;99238.63;;;18.99;69.72
46129;BME280;31860;45.186;5.790;2022-10-16T02:54:05;99238.72;;;18.96;69.88
46129;BME280;31860;45.186;5.790;2022-10-16T02:56:31;99243.25;;;18.92;69.74
46129;BME280;31860;45.186;5.790;2022-10-16T02:58:57;99250.38;;;18.90;70.04
46129;BME280;31860;45.186;5.790;2022-10-16T03:01:23;99253.94;;;18.89;69.88
46129;BME280;31860;45.186;5.790;2022-10-16T03:03:48;99246.16;;;18.84;69.94
46129;BME280;31860;45.186;5.790;2022-10-16T03:06:14;99249.84;;;18.79;69.99
46129;BME280;31860;45.186;5.790;2022-10-16T03:08:39;99249.84;;;18.79;69.88
46129;BME280;31860;45.186;5.790;2022-10-16T03:11:05;99248.22;;;18.75;69.73
46129;BME280;31860;45.186;5.790;2022-10-16T03:13:30;99246.44;;;18.75;69.62
46129;BME280;31860;45.186;5.790;2022-10-16T03:15:55;99248.34;;;18.70;69.70
46129;BME280;31860;45.186;5.790;2022-10-16T03:18:21;99239.50;;;18.71;69.56
46129;BME280;31860;45.186;5.790;2022-10-16T03:20:46;99243.13;;;18.69;69.60
46129;BME280;31860;45.186;5.790;2022-10-16T03:23:13;99243.16;;;18.67;69.63
46129;BME280;31860;45.186;5.790;2022-10-16T03:25:38;99244.91;;;18.68;69.54
46129;BME280;31860;45.186;5.790;2022-10-16T03:28:04;99251.16;;;18.66;69.30
46129;BME280;31860;45.186;5.790;2022-10-16T03:30:29;99244.13;;;18.65;69.21
46129;BME280;31860;45.186;5.790;2022-10-16T03:32:55;99243.28;;;18.64;69.23
46129;BME280;31860;45.186;5.790;2022-10-16T03:35:22;99241.59;;;18.62;69.28
46129;BME280;31860;45.186;5.790;2022-10-16T03:37:48;99243.41;;;18.60;69.41
46129;BME280;31860;45.186;5.790;2022-10-16T03:40:13;99245.16;;;18.61;69.73
46129;BME280;31860;45.186;5.790;2022-10-16T03:42:39;99238.22;;;18.57;69.71
46129;BME280;31860;45.186;5.790;2022-10-16T03:45:05;99242.66;;;18.56;69.63
46129;BME280;31860;45.186;5.790;2022-10-16T03:47:30;99246.25;;;18.54;69.66
46129;BME280;31860;45.186;5.790;2022-10-16T03:49:58;99253.34;;;18.53;69.77
46129;BME280;31860;45.186;5.790;2022-10-16T03:52:24;99255.19;;;18.50;69.91
46129;BME280;31860;45.186;5.790;2022-10-16T03:54:49;99249.91;;;18.50;69.74
46129;BME280;31860;45.186;5.790;2022-10-16T03:57:15;99251.66;;;18.51;70.00
46129;BME280;31860;45.186;5.790;2022-10-16T03:59:40;99253.41;;;18.50;70.11
46129;BME280;31860;45.186;5.790;2022-10-16T04:02:05;99253.41;;;18.50;70.09
46129;BME280;31860;45.186;5.790;2022-10-16T04:04:31;99252.59;;;18.48;69.81
46129;BME280;31860;45.186;5.790;2022-10-16T04:06:56;99247.31;;;18.48;69.84
46129;BME280;31860;45.186;5.790;2022-10-16T04:09:21;99253.47;;;18.49;69.93
46129;BME280;31860;45.186;5.790;2022-10-16T04:11:47;99246.44;;;18.48;70.04
46129;BME280;31860;45.186;5.790;2022-10-16T04:14:12;99252.53;;;18.50;69.98
46129;BME280;31860;45.186;5.790;2022-10-16T04:16:38;99250.00;;;18.47;70.04
46129;BME280;31860;45.186;5.790;2022-10-16T04:19:03;99251.88;;;18.43;69.93
46129;BME280;31860;45.186;5.790;2022-10-16T04:21:28;99252.78;;;18.41;70.06
46129;BME280;31860;45.186;5.790;2022-10-16T04:23:54;99248.38;;;18.41;70.21
46129;BME280;31860;45.186;5.790;2022-10-16T04:26:19;99256.31;;;18.41;70.11
46129;BME280;31860;45.186;5.790;2022-10-16T04:28:44;99250.19;;;18.39;70.20
46129;BME280;31860;45.186;5.790;2022-10-16T04:31:10;99240.56;;;18.38;70.19
46129;BME280;31860;45.186;5.790;2022-10-16T04:33:35;99247.66;;;18.36;70.28
46129;BME280;31860;45.186;5.790;2022-10-16T04:36:01;99251.22;;;18.35;70.12
46129;BME280;31860;45.186;5.790;2022-10-16T04:38:27;99245.84;;;18.37;70.20
46129;BME280;31860;45.186;5.790;2022-10-16T04:40:53;99247.66;;;18.36;70.27
46129;BME280;31860;45.186;5.790;2022-10-16T04:43:19;99253.78;;;18.38;70.35
46129;BME280;31860;45.186;5.790;2022-10-16T04:45:44;99253.78;;;18.37;70.63
46129;BME280;31860;45.186;5.790;2022-10-16T04:48:10;99260.88;;;18.36;70.53
46129;BME280;31860;45.186;5.790;2022-10-16T04:50:35;99254.63;;;18.39;70.36
46129;BME280;31860;45.186;5.790;2022-10-16T04:53:00;99262.59;;;18.37;70.78
46129;BME280;31860;45.186;5.790;2022-10-16T04:55:26;99267.94;;;18.36;70.80
46129;BME280;31860;45.186;5.790;2022-10-16T04:57:51;99259.25;;;18.32;70.77
46129;BME280;31860;45.186;5.790;2022-10-16T05:00:17;99259.28;;;18.31;70.43
46129;BME280;31860;45.186;5.790;2022-10-16T05:02:42;99261.94;;;18.31;70.26
46129;BME280;31860;45.186;5.790;2022-10-16T05:05:08;99256.53;;;18.34;70.15
46129;BME280;31860;45.186;5.790;2022-10-16T05:07:33;99265.38;;;18.33;70.14
46129;BME280;31860;45.186;5.790;2022-10-16T05:09:59;99264.53;;;18.32;70.12
46129;BME280;31860;45.186;5.790;2022-10-16T05:12:24;99260.97;;;18.33;70.04
46129;BME280;31860;45.186;5.790;2022-10-16T05:14:49;99268.06;;;18.31;70.32
46129;BME280;31860;45.186;5.790;2022-10-16T05:17:15;99267.19;;;18.32;69.95
46129;BME280;31860;45.186;5.790;2022-10-16T05:19:40;99264.53;;;18.32;69.75
46129;BME280;31860;45.186;5.790;2022-10-16T05:22:06;99271.66;;;18.30;69.77
46129;BME280;31860;45.186;5.790;2022-10-16T05:24:31;99271.78;;;18.26;69.71
46129;BME280;31860;45.186;5.790;2022-10-16T05:26:57;99261.25;;;18.24;69.89
46129;BME280;31860;45.186;5.790;2022-10-16T05:29:22;99274.53;;;18.23;69.96
46129;BME280;31860;45.186;5.790;2022-10-16T05:31:54;99276.38;;;18.19;69.76
46129;BME280;31860;45.186;5.790;2022-10-16T05:34:20;99269.28;;;18.21;69.82
46129;BME280;31860;45.186;5.790;2022-10-16T05:36:45;99279.06;;;18.18;69.54
46129;BME280;31860;45.186;5.790;2022-10-16T05:39:11;99273.75;;;18.19;69.47
46129;BME280;31860;45.186;5.790;2022-10-16T05:41:37;99284.28;;;18.21;69.24
46129;BME280;31860;45.186;5.790;2022-10-16T05:44:05;99286.97;;;18.19;69.31
46129;BME280;31860;45.186;5.790;2022-10-16T05:46:31;99282.63;;;18.17;69.01
46129;BME280;31860;45.186;5.790;2022-10-16T05:48:57;99298.53;;;18.15;69.15
46129;BME280;31860;45.186;5.790;2022-10-16T05:51:23;99294.19;;;18.13;69.01
46129;BME280;31860;45.186;5.790;2022-10-16T05:53:48;99293.31;;;18.12;68.94
46129;BME280;31860;45.186;5.790;2022-10-16T05:56:14;99289.72;;;18.15;68.86
46129;BME280;31860;45.186;5.790;2022-10-16T05:58:39;99288.78;;;18.17;68.62
46129;BME280;31860;45.186;5.790;2022-10-16T06:01:14;99296.78;;;18.16;68.49
46129;BME280;31860;45.186;5.790;2022-10-16T06:03:40;99297.63;;;18.16;68.00
46129;BME280;31860;45.186;5.790;2022-10-16T06:06:10;99304.69;;;18.16;68.00
46129;BME280;31860;45.186;5.790;2022-10-16T06:08:37;99303.78;;;18.17;68.13
46129;BME280;31860;45.186;5.790;2022-10-16T06:11:08;99309.06;;;18.17;68.19
46129;BME280;31860;45.186;5.790;2022-10-16T06:13:33;99319.66;;;18.17;68.27
46129;BME280;31860;45.186;5.790;2022-10-16T06:16:00;99319.75;;;18.14;68.31
46129;BME280;31860;45.186;5.790;2022-10-16T06:18:26;99318.03;;;18.11;68.18
46129;BME280;31860;45.186;5.790;2022-10-16T06:20:52;99326.06;;;18.08;68.14
46129;BME280;31860;45.186;5.790;2022-10-16T06:23:18;99320.81;;;18.07;68.47
46129;BME280;31860;45.186;5.790;2022-10-16T06:25:43;99327.06;;;18.04;68.80
46129;BME280;31860;45.186;5.790;2022-10-16T06:28:09;99324.47;;;18.01;68.99
46129;BME280;31860;45.186;5.790;2022-10-16T06:30:34;99322.78;;;18.00;69.35
46129;BME280;31860;45.186;5.790;2022-10-16T06:32:59;99328.13;;;17.97;69.59
46129;BME280;31860;45.186;5.790;2022-10-16T06:35:25;99329.03;;;17.96;70.03
46129;BME280;31860;45.186;5.790;2022-10-16T06:37:52;99330.69;;;18.00;69.75
46129;BME280;31860;45.186;5.790;2022-10-16T06:40:18;99337.81;;;17.98;70.10
46129;BME280;31860;45.186;5.790;2022-10-16T06:42:43;99340.44;;;17.98;69.99
46129;BME280;31860;45.186;5.790;2022-10-16T06:45:09;99343.03;;;17.99;69.95
46129;BME280;31860;45.186;5.790;2022-10-16T06:47:35;99345.59;;;18.02;69.88
46129;BME280;31860;45.186;5.790;2022-10-16T06:50:00;99346.41;;;18.05;69.66
46129;BME280;31860;45.186;5.790;2022-10-16T06:52:28;99344.59;;;18.07;69.64
46129;BME280;31860;45.186;5.790;2022-10-16T06:54:53;99348.94;;;18.09;69.65
46129;BME280;31860;45.186;5.790;2022-10-16T06:57:18;99346.19;;;18.12;69.19
46129;BME280;31860;45.186;5.790;2022-10-16T06:59:44;99363.78;;;18.15;69.00
46129;BME280;31860;45.186;5.790;2022-10-16T07:02:09;99363.81;;;18.13;69.16
46129;BME280;31860;45.186;5.790;2022-10-16T07:04:36;99370.81;;;18.14;69.08
46129;BME280;31860;45.186;5.790;2022-10-16T07:07:02;99377.00;;;18.15;69.16
46129;BME280;31860;45.186;5.790;2022-10-16T07:09:27;99379.75;;;18.10;69.46
46129;BME280;31860;45.186;5.790;2022-10-16T07:11:53;99379.00;;;18.05;69.80
46129;BME280;31860;45.186;5.790;2022-10-16T07:14:20;99383.53;;;18.02;69.91
46129;BME280;31860;45.186;5.790;2022-10-16T07:16:46;99382.78;;;17.96;70.38
46129;BME280;31860;45.186;5.790;2022-10-16T07:19:12;99385.44;;;17.96;70.44
46129;BME280;31860;45.186;5.790;2022-10-16T07:21:39;99387.19;;;17.96;70.44
46129;BME280;31860;45.186;5.790;2022-10-16T07:24:07;99387.25;;;17.94;70.64
46129;BME280;31860;45.186;5.790;2022-10-16T07:26:37;99392.44;;;17.97;70.60
46129;BME280;31860;45.186;5.790;2022-10-16T07:29:08;99393.97;;;18.06;70.50
46129;BME280;31860;45.186;5.790;2022-10-16T07:31:36;99391.19;;;18.11;70.82
46129;BME280;31860;45.186;5.790;2022-10-16T07:34:01;99397.94;;;18.22;70.73
46129;BME280;31860;45.186;5.790;2022-10-16T07:36:27;99400.31;;;18.31;70.15
46129;BME280;31860;45.186;5.790;2022-10-16T07:38:52;99401.81;;;18.41;70.30
46129;BME280;31860;45.186;5.790;2022-10-16T07:41:19;99394.47;;;18.52;70.06
46129;BME280;31860;45.186;5.790;2022-10-16T07:43:48;99411.00;;;18.60;69.97
46129;BME280;31860;45.186;5.790;2022-10-16T07:46:14;99403.72;;;18.68;69.99
46129;BME280;31860;45.186;5.790;2022-10-16T07:48:41;99408.72;;;18.77;69.88
46129;BME280;31860;45.186;5.790;2022-10-16T07:51:11;99404.78;;;18.90;69.73
46129;BME280;31860;45.186;5.790;2022-10-16T07:53:36;99407.22;;;18.98;69.18
46129;BME280;31860;45.186;5.790;2022-10-16T07:56:04;99406.00;;;19.08;69.25
46129;BME280;31860;45.186;5.790;2022-10-16T07:58:31;99403.03;;;19.19;68.84
46129;BME280;31860;45.186;5.790;2022-10-16T08:00:57;99406.16;;;19.31;68.50
46129;BME280;31860;45.186;5.790;2022-10-16T08:03:24;99409.34;;;19.42;68.26
46129;BME280;31860;45.186;5.790;2022-10-16T08:05:50;99407.22;;;19.53;67.73
46129;BME280;31860;45.186;5.790;2022-10-16T08:08:17;99402.41;;;19.66;67.41
46129;BME280;31860;45.186;5.790;2022-10-16T08:10:43;99413.50;;;19.77;66.72
46129;BME280;31860;45.186;5.790;2022-10-16T08:13:08;99414.00;;;19.88;66.51
46129;BME280;31860;45.186;5.790;2022-10-16T08:15:34;99414.56;;;19.98;66.45
46129;BME280;31860;45.186;5.790;2022-10-16T08:18:02;99417.78;;;20.07;66.17
46129;BME280;31860;45.186;5.790;2022-10-16T08:20:28;99401.47;;;20.19;66.04
46129;BME280;31860;45.186;5.790;2022-10-16T08:22:54;99414.41;;;20.28;65.96
46129;BME280;31860;45.186;5.790;2022-10-16T08:25:21;99402.50;;;20.38;65.32
46129;BME280;31860;45.186;5.790;2022-10-16T08:27:47;99397.81;;;20.46;64.85
46129;BME280;31860;45.186;5.790;2022-10-16T08:30:13;99401.97;;;20.53;65.20
46129;BME280;31860;45.186;5.790;2022-10-16T08:32:39;99399.09;;;20.59;65.26
46129;BME280;31860;45.186;5.790;2022-10-16T08:35:06;99399.75;;;20.66;64.75
46129;BME280;31860;45.186;5.790;2022-10-16T08:37:32;99403.94;;;20.71;64.83
46129;BME280;31860;45.186;5.790;2022-10-16T08:39:58;99408.28;;;20.74;64.90
46129;BME280;31860;45.186;5.790;2022-10-16T08:50:54;99397.94;;;20.90;64.69
46129;BME280;31860;45.186;5.790;2022-10-16T08:53:28;99395.09;;;20.94;64.70
46129;BME280;31860;45.186;5.790;2022-10-16T08:55:55;99400.28;;;20.97;64.26
46129;BME280;31860;45.186;5.790;2022-10-16T08:58:22;99392.31;;;20.97;64.50
46129;BME280;31860;45.186;5.790;2022-10-16T09:00:56;99401.03;;;21.02;64.46
46129;BME280;31860;45.186;5.790;2022-10-16T09:16:34;99408.50;;;21.14;62.64
46129;BME280;31860;45.186;5.790;2022-10-16T09:19:05;99394.34;;;21.14;62.76
46129;BME280;31860;45.186;5.790;2022-10-16T09:21:45;99398.69;;;21.16;62.64
46129;BME280;31860;45.186;5.790;2022-10-16T09:24:21;99398.63;;;21.18;62.96
46129;BME280;31860;45.186;5.790;2022-10-16T09:26:49;99397.72;;;21.19;63.09
46129;BME280;31860;45.186;5.790;2022-10-16T09:29:16;99402.09;;;21.20;62.74
46129;BME280;31860;45.186;5.790;2022-10-16T09:31:45;99407.31;;;21.21;62.61
46129;BME280;31860;45.186;5.790;2022-10-16T09:34:32;99410.84;;;21.22;62.48
46129;BME280;31860;45.186;5.790;2022-10-16T09:36:59;99410.75;;;21.25;63.11
46129;BME280;31860;45.186;5.790;2022-10-16T09:39:26;99418.53;;;21.29;62.61
46129;BME280;31860;45.186;5.790;2022-10-16T09:41:52;99408.78;;;21.30;62.37
46129;BME280;31860;45.186;5.790;2022-10-16T09:44:19;99411.25;;;21.34;62.30
46129;BME280;31860;45.186;5.790;2022-10-16T09:46:46;99405.88;;;21.36;62.30
46129;BME280;31860;45.186;5.790;2022-10-16T09:51:46;99413.41;;;21.46;62.28
46129;BME280;31860;45.186;5.790;2022-10-16T09:54:15;99401.66;;;21.52;62.43
46129;BME280;31860;45.186;5.790;2022-10-16T09:56:40;99404.13;;;21.56;62.19
46129;BME280;31860;45.186;5.790;2022-10-16T09:59:15;99406.47;;;21.64;61.98
46129;BME280;31860;45.186;5.790;2022-10-16T10:01:49;99398.25;;;21.70;61.76
46129;BME280;31860;45.186;5.790;2022-10-16T10:04:19;99400.53;;;21.79;61.85
46129;BME280;31860;45.186;5.790;2022-10-16T10:06:53;99399.22;;;21.89;61.50
46129;BME280;31860;45.186;5.790;2022-10-16T10:09:26;99391.69;;;22.00;61.40
46129;BME280;31860;45.186;5.790;2022-10-16T10:11:55;99390.25;;;22.12;60.88
46129;BME280;31860;45.186;5.790;2022-10-16T10:14:35;99390.59;;;22.24;60.70
46129;BME280;31860;45.186;5.790;2022-10-16T10:19:49;99385.06;;;22.49;59.63
46129;BME280;31860;45.186;5.790;2022-10-16T10:22:23;99387.06;;;22.64;59.52
46129;BME280;31860;45.186;5.790;2022-10-16T10:25:18;99374.75;;;22.80;58.47
46129;BME280;31860;45.186;5.790;2022-10-16T10:28:10;99385.56;;;22.96;58.65
46129;BME280;31860;45.186;5.790;2022-10-16T10:46:50;99358.47;;;23.93;56.12
46129;BME280;31860;45.186;5.790;2022-10-16T10:54:58;99362.41;;;24.37;54.91
46129;BME280;31860;45.186;5.790;2022-10-16T10:57:33;99351.13;;;24.48;54.27
46129;BME280;31860;45.186;5.790;2022-10-16T11:03:03;99333.16;;;24.67;52.81
46129;BME280;31860;45.186;5.790;2022-10-16T11:05:43;99335.44;;;24.75;52.50
46129;BME280;31860;45.186;5.790;2022-10-16T11:08:19;99334.94;;;24.84;52.72
46129;BME280;31860;45.186;5.790;2022-10-16T11:10:54;99320.22;;;24.92;52.67
46129;BME280;31860;45.186;5.790;2022-10-16T11:16:11;99320.97;;;25.10;52.21
46129;BME280;31860;45.186;5.790;2022-10-16T11:18:52;99304.47;;;25.17;51.01
46129;BME280;31860;45.186;5.790;2022-10-16T11:21:22;99296.63;;;25.30;51.27
46129;BME280;31860;45.186;5.790;2022-10-16T11:23:57;99303.19;;;25.40;50.09
46129;BME280;31860;45.186;5.790;2022-10-16T11:26:27;99300.72;;;25.51;50.72
46129;BME280;31860;45.186;5.790;2022-10-16T11:28:55;99296.41;;;25.64;49.95
46129;BME280;31860;45.186;5.790;2022-10-16T11:31:32;99294.88;;;25.74;49.18
46129;BME280;31860;45.186;5.790;2022-10-16T11:34:22;99289.69;;;25.87;48.25
46129;BME280;31860;45.186;5.790;2022-10-16T11:36:55;99300.59;;;25.98;48.88
46129;BME280;31860;45.186;5.790;2022-10-16T11:39:24;99279.31;;;26.10;48.62
46129;BME280;31860;45.186;5.790;2022-10-16T11:42:13;99273.19;;;26.22;47.64
46129;BME280;31860;45.186;5.790;2022-10-16T11:50:28;99280.44;;;26.63;47.02
46129;BME280;31860;45.186;5.790;2022-10-16T11:53:04;99268.84;;;26.76;47.40
46129;BME280;31860;45.186;5.790;2022-10-16T11:55:43;99269.88;;;26.88;47.09
46129;BME280;31860;45.186;5.790;2022-10-16T12:00:41;99263.56;;;27.15;46.21
46129;BME280;31860;45.186;5.790;2022-10-16T12:03:16;99255.47;;;27.30;46.16
46129;BME280;31860;45.186;5.790;2022-10-16T12:06:01;99250.81;;;27.46;45.22
46129;BME280;31860;45.186;5.790;2022-10-16T12:08:34;99247.94;;;27.61;45.72
46129;BME280;31860;45.186;5.790;2022-10-16T12:13:50;99240.25;;;27.94;44.25
46129;BME280;31860;45.186;5.790;2022-10-16T12:18:43;99241.88;;;28.22;42.94
46129;BME280;31860;45.186;5.790;2022-10-16T12:21:10;99242.59;;;28.37;42.58
46129;BME280;31860;45.186;5.790;2022-10-16T12:23:47;99246.13;;;28.50;40.80
46129;BME280;31860;45.186;5.790;2022-10-16T12:26:13;99247.00;;;28.63;41.43
46129;BME280;31860;45.186;5.790;2022-10-16T12:28:39;99238.03;;;28.75;40.95
46129;BME280;31860;45.186;5.790;2022-10-16T12:31:07;99235.41;;;28.86;40.60
46129;BME280;31860;45.186;5.790;2022-10-16T12:33:43;99223.75;;;28.98;39.89
46129;BME280;31860;45.186;5.790;2022-10-16T12:36:31;99237.47;;;29.06;37.86
46129;BME280;31860;45.186;5.790;2022-10-16T12:38:58;99237.81;;;29.14;39.57
46129;BME280;31860;45.186;5.790;2022-10-16T12:41:27;99231.22;;;29.18;39.36
46129;BME280;31860;45.186;5.790;2022-10-16T12:43:53;99230.66;;;29.26;39.15
46129;BME280;31860;45.186;5.790;2022-10-16T12:48:44;99226.16;;;29.37;38.51
46129;BME280;31860;45.186;5.790;2022-10-16T12:53:58;99229.22;;;29.44;37.71
46129;BME280;31860;45.186;5.790;2022-10-16T12:56:32;99214.44;;;29.49;37.67
46129;BME280;31860;45.186;5.790;2022-10-16T12:59:04;99219.34;;;29.55;38.03
46129;BME280;31860;45.186;5.790;2022-10-16T13:01:48;99232.50;;;29.60;36.68
46129;BME280;31860;45.186;5.790;2022-10-16T13:04:31;99227.59;;;29.65;37.22
46129;BME280;31860;45.186;5.790;2022-10-16T13:07:18;99225.50;;;29.68;36.09
46129;BME280;31860;45.186;5.790;2022-10-16T13:16:11;99231.16;;;29.65;36.81
46129;BME280;31860;45.186;5.790;2022-10-16T13:18:29;99222.56;;;29.60;35.59
46129;BME280;31860;45.186;5.790;2022-10-16T13:23:57;99232.53;;;29.47;36.04
46129;BME280;31860;45.186;5.790;2022-10-16T13:26:35;99217.09;;;29.38;35.77
46129;BME280;31860;45.186;5.790;2022-10-16T13:29:05;99231.16;;;29.31;36.63
46129;BME280;31860;45.186;5.790;2022-10-16T13:31:32;99218.50;;;29.20;36.45
46129;BME280;31860;45.186;5.790;2022-10-16T13:33:59;99217.25;;;29.13;36.53
46129;BME280;31860;45.186;5.790;2022-10-16T13:36:42;99219.84;;;29.02;35.95
46129;BME280;31860;45.186;5.790;2022-10-16T13:39:29;99220.91;;;28.88;35.71
46129;BME280;31860;45.186;5.790;2022-10-16T13:42:01;99214.59;;;28.77;36.48
46129;BME280;31860;45.186;5.790;2022-10-16T13:44:31;99226.97;;;28.67;36.95
46129;BME280;31860;45.186;5.790;2022-10-16T13:47:00;99207.09;;;28.57;37.10
46129;BME280;31860;45.186;5.790;2022-10-16T13:49:27;99226.44;;;28.49;37.04
46129;BME280;31860;45.186;5.790;2022-10-16T13:51:57;99213.69;;;28.40;36.67
46129;BME280;31860;45.186;5.790;2022-10-16T13:54:24;99217.16;;;28.30;37.20
46129;BME280;31860;45.186;5.790;2022-10-16T13:56:50;99210.50;;;28.23;37.04
46129;BME280;31860;45.186;5.790;2022-10-16T14:01:49;99218.16;;;28.03;37.37
46129;BME280;31860;45.186;5.790;2022-10-16T14:04:16;99216.09;;;27.94;37.45
46129;BME280;31860;45.186;5.790;2022-10-16T14:06:47;99206.84;;;27.86;37.13
46129;BME280;31860;45.186;5.790;2022-10-16T14:09:24;99219.09;;;27.77;37.28
46129;BME280;31860;45.186;5.790;2022-10-16T14:12:11;99234.22;;;27.66;36.94
46129;BME280;31860;45.186;5.790;2022-10-16T14:14:46;99217.88;;;27.56;37.23
46129;BME280;31860;45.186;5.790;2022-10-16T14:17:18;99222.16;;;27.46;37.64
46129;BME280;31860;45.186;5.790;2022-10-16T14:19:50;99216.53;;;27.37;37.78
46129;BME280;31860;45.186;5.790;2022-10-16T14:22:26;99224.13;;;27.30;37.92
46129;BME280;31860;45.186;5.790;2022-10-16T14:24:53;99226.47;;;27.22;38.25
46129;BME280;31860;45.186;5.790;2022-10-16T14:27:33;99221.81;;;27.11;38.10
46129;BME280;31860;45.186;5.790;2022-10-16T14:30:11;99225.84;;;27.04;38.02
46129;BME280;31860;45.186;5.790;2022-10-16T14:32:41;99237.97;;;26.97;38.39
46129;BME280;31860;45.186;5.790;2022-10-16T14:35:34;99236.72;;;26.89;38.02
46129;BME280;31860;45.186;5.790;2022-10-16T14:38:03;99241.75;;;26.81;38.79
46129;BME280;31860;45.186;5.790;2022-10-16T14:40:31;99238.50;;;26.76;38.89
46129;BME280;31860;45.186;5.790;2022-10-16T14:42:58;99246.97;;;26.70;39.00